createdAt,value
2022-11-10T00:00:01.702Z,99.90
2022-11-10T00:02:47.259Z,99.90
2022-11-10T00:05:33.810Z,99.90
2022-11-10T00:08:19.596Z,99.90
2022-11-10T00:11:07.249Z,99.90
2022-11-10T00:14:12.241Z,99.90
2022-11-10T00:17:01.263Z,99.90
2022-11-10T00:19:46.752Z,99.90
2022-11-10T00:22:34.282Z,99.90
2022-11-10T00:25:20.991Z,99.90
2022-11-10T00:28:06.610Z,99.90
2022-11-10T00:30:52.577Z,99.90
2022-11-10T00:33:39.800Z,99.90
2022-11-10T00:36:25.539Z,99.90
2022-11-10T00:39:11.951Z,99.90
2022-11-10T00:41:57.989Z,99.90
2022-11-10T00:44:43.586Z,99.90
2022-11-10T00:47:29.263Z,99.90
2022-11-10T00:50:15.627Z,99.90
2022-11-10T00:53:01.940Z,99.90
2022-11-10T00:55:48.798Z,99.90
2022-11-10T00:58:34.548Z,99.90
2022-11-10T01:01:22.059Z,99.90
2022-11-10T01:04:07.999Z,99.90
2022-11-10T01:06:53.627Z,99.90
2022-11-10T01:09:39.214Z,99.90
2022-11-10T01:12:28.085Z,99.90
2022-11-10T01:15:13.839Z,99.90
2022-11-10T01:17:59.523Z,99.90
2022-11-10T01:20:52.617Z,99.90
2022-11-10T01:23:38.807Z,99.90
2022-11-10T01:26:25.053Z,99.90
2022-11-10T01:29:10.801Z,99.90
2022-11-10T01:31:56.445Z,99.90
2022-11-10T01:34:42.061Z,99.90
2022-11-10T01:37:28.431Z,99.90
2022-11-10T01:40:14.452Z,99.90
2022-11-10T01:43:00.431Z,99.90
2022-11-10T01:45:46.086Z,99.90
2022-11-10T01:48:41.037Z,99.90
2022-11-10T01:51:31.230Z,99.90
2022-11-10T01:54:25.471Z,99.90
2022-11-10T01:57:13.848Z,99.90
2022-11-10T01:59:59.606Z,99.90
2022-11-10T02:02:54.429Z,99.90
2022-11-10T02:05:40.642Z,99.90
2022-11-10T02:08:27.521Z,99.90
2022-11-10T02:11:13.250Z,99.90
2022-11-10T02:13:59.681Z,99.90
2022-11-10T02:16:45.220Z,99.90
2022-11-10T02:19:38.911Z,99.90
2022-11-10T02:22:24.675Z,99.90
2022-11-10T02:25:11.196Z,99.90
2022-11-10T02:27:56.910Z,99.90
2022-11-10T02:30:42.372Z,99.90
2022-11-10T02:33:27.624Z,99.90
2022-11-10T02:36:13.432Z,99.90
2022-11-10T02:38:58.800Z,99.90
2022-11-10T02:41:44.382Z,99.90
2022-11-10T02:44:29.863Z,99.90
2022-11-10T02:47:15.523Z,99.90
2022-11-10T02:50:01.106Z,99.90
2022-11-10T02:52:46.654Z,99.90
2022-11-10T02:55:32.198Z,99.90
2022-11-10T02:58:17.696Z,99.90
2022-11-10T03:01:06.981Z,99.90
2022-11-10T03:03:52.513Z,99.90
2022-11-10T03:06:37.974Z,99.90
2022-11-10T03:09:24.872Z,99.90
2022-11-10T03:12:10.433Z,99.90
2022-11-10T03:14:55.782Z,99.90
2022-11-10T03:17:41.570Z,99.90
2022-11-10T03:20:26.768Z,99.90
2022-11-10T03:23:12.049Z,99.90
2022-11-10T03:25:57.426Z,99.90
2022-11-10T03:28:43.046Z,99.90
2022-11-10T03:31:28.749Z,99.90
2022-11-10T03:34:14.367Z,99.90
2022-11-10T03:36:59.848Z,99.90
2022-11-10T03:39:45.399Z,99.90
2022-11-10T03:42:30.844Z,99.90
2022-11-10T03:45:16.518Z,99.90
2022-11-10T03:48:02.007Z,99.90
2022-11-10T03:50:47.622Z,99.90
2022-11-10T03:53:32.916Z,99.90
2022-11-10T03:56:18.534Z,99.90
2022-11-10T03:59:04.312Z,99.90
2022-11-10T04:01:50.312Z,99.90
2022-11-10T04:04:55.295Z,99.90
2022-11-10T04:07:59.283Z,99.90
2022-11-10T04:10:45.100Z,99.90
2022-11-10T04:13:49.020Z,99.90
2022-11-10T04:16:34.506Z,99.90
2022-11-10T04:19:19.979Z,99.90
2022-11-10T04:22:05.568Z,99.90
2022-11-10T04:24:51.075Z,99.90
2022-11-10T04:27:36.208Z,99.90
2022-11-10T04:30:21.843Z,99.90
2022-11-10T04:33:07.000Z,99.90
2022-11-10T04:35:52.313Z,99.90
2022-11-10T04:38:38.016Z,99.90
2022-11-10T04:41:24.911Z,99.90
2022-11-10T04:44:10.217Z,99.90
2022-11-10T04:46:55.635Z,99.90
2022-11-10T04:49:41.243Z,99.90
2022-11-10T04:52:26.379Z,99.90
2022-11-10T04:55:12.147Z,99.90
2022-11-10T04:57:57.756Z,99.90
2022-11-10T05:00:43.436Z,99.90
2022-11-10T05:03:28.788Z,99.90
2022-11-10T05:06:14.689Z,99.90
2022-11-10T05:08:59.997Z,99.90
2022-11-10T05:11:45.502Z,99.90
2022-11-10T05:14:30.770Z,99.90
2022-11-10T05:17:16.234Z,99.90
2022-11-10T05:20:01.768Z,99.90
2022-11-10T05:23:08.770Z,99.90
2022-11-10T05:25:54.148Z,99.90
2022-11-10T05:28:41.673Z,99.90
2022-11-10T05:31:26.992Z,99.90
2022-11-10T05:34:12.509Z,99.90
2022-11-10T05:36:58.336Z,99.90
2022-11-10T05:39:43.893Z,99.90
2022-11-10T05:42:29.630Z,99.90
2022-11-10T05:45:15.788Z,99.90
2022-11-10T05:48:01.233Z,99.90
2022-11-10T05:50:49.536Z,99.90
2022-11-10T05:57:53.769Z,99.90
2022-11-10T06:01:08.014Z,99.90
2022-11-10T06:03:44.735Z,99.90
2022-11-10T06:06:30.552Z,99.90
2022-11-10T06:09:16.214Z,99.90
2022-11-10T06:12:03.398Z,99.90
2022-11-10T06:14:48.644Z,99.90
2022-11-10T06:17:34.228Z,99.90
2022-11-10T06:20:20.614Z,99.90
2022-11-10T06:23:10.323Z,99.90
2022-11-10T06:25:55.822Z,99.90
2022-11-10T06:28:48.667Z,99.90
2022-11-10T06:31:35.006Z,99.90
2022-11-10T06:34:28.966Z,99.90
2022-11-10T06:37:16.716Z,99.90
2022-11-10T06:40:02.813Z,99.90
2022-11-10T06:42:48.880Z,99.90
2022-11-10T06:45:34.513Z,99.90
2022-11-10T06:48:20.894Z,99.90
2022-11-10T06:51:06.702Z,99.90
2022-11-10T06:53:52.196Z,99.90
2022-11-10T06:56:38.580Z,99.90
2022-11-10T06:59:24.325Z,99.90
2022-11-10T07:02:16.339Z,99.90
2022-11-10T07:05:04.959Z,99.90
2022-11-10T07:07:51.138Z,99.90
2022-11-10T07:10:37.074Z,99.90
2022-11-10T07:13:24.000Z,99.90
2022-11-10T07:16:10.626Z,99.90
2022-11-10T07:18:56.516Z,99.90
2022-11-10T07:21:42.570Z,99.90
2022-11-10T07:24:30.721Z,99.90
2022-11-10T07:27:16.718Z,99.90
2022-11-10T07:30:02.610Z,99.90
2022-11-10T07:32:48.346Z,99.90
2022-11-10T07:35:35.272Z,99.90
2022-11-10T07:38:20.935Z,99.90
2022-11-10T07:41:06.432Z,99.90
2022-11-10T07:43:52.006Z,99.90
2022-11-10T07:46:37.470Z,99.90
2022-11-10T07:49:23.205Z,99.90
2022-11-10T07:52:08.837Z,99.90
2022-11-10T07:54:54.158Z,99.90
2022-11-10T07:57:39.948Z,99.90
2022-11-10T08:00:26.117Z,99.90
2022-11-10T08:03:14.224Z,99.90
2022-11-10T08:05:59.976Z,99.90
2022-11-10T08:08:48.485Z,99.90
2022-11-10T08:11:33.988Z,99.90
2022-11-10T08:14:19.955Z,99.90
2022-11-10T08:17:05.543Z,99.90
2022-11-10T08:19:51.594Z,99.90
2022-11-10T08:22:37.179Z,99.90
2022-11-10T08:25:22.923Z,99.90
2022-11-10T08:28:11.677Z,99.90
2022-11-10T08:31:01.481Z,99.90
2022-11-10T08:33:49.825Z,99.90
2022-11-10T08:36:37.667Z,99.50
2022-11-10T08:39:38.091Z,98.70
2022-11-10T08:42:24.457Z,97.80
2022-11-10T08:45:10.615Z,97.00
2022-11-10T08:48:00.134Z,96.60
2022-11-10T08:50:47.135Z,96.50
2022-11-10T08:53:32.685Z,96.30
2022-11-10T08:56:18.425Z,95.20
2022-11-10T08:59:03.870Z,95.30
2022-11-10T09:01:49.087Z,94.80
2022-11-10T09:04:34.489Z,94.80
2022-11-10T09:07:19.896Z,94.50
2022-11-10T09:10:07.877Z,94.00
2022-11-10T09:12:53.839Z,93.90
2022-11-10T09:15:39.964Z,93.60
2022-11-10T09:18:25.730Z,91.80
2022-11-10T09:21:11.984Z,92.60
2022-11-10T09:24:07.400Z,92.10
2022-11-10T09:26:53.321Z,92.00
2022-11-10T09:29:38.616Z,91.80
2022-11-10T09:32:23.909Z,91.10
2022-11-10T09:35:09.025Z,90.70
2022-11-10T09:37:54.516Z,90.50
2022-11-10T09:40:55.869Z,91.50
2022-11-10T09:43:47.982Z,90.50
2022-11-10T09:46:51.583Z,90.50
2022-11-10T09:49:44.791Z,90.80
2022-11-10T09:52:34.245Z,90.30
2022-11-10T09:55:31.901Z,90.20
2022-11-10T09:58:21.800Z,89.30
2022-11-10T10:01:51.347Z,88.90
2022-11-10T10:05:04.166Z,88.50
2022-11-10T10:08:06.650Z,88.40
2022-11-10T10:11:09.332Z,89.20
2022-11-10T10:14:09.153Z,88.50
2022-11-10T10:17:04.233Z,89.30
2022-11-10T10:20:01.050Z,89.30
2022-11-10T10:22:57.353Z,87.10
2022-11-10T10:25:45.813Z,87.30
2022-11-10T10:28:39.341Z,85.50
2022-11-10T10:31:28.225Z,86.10
2022-11-10T10:34:19.703Z,86.80
2022-11-10T10:37:15.751Z,86.40
2022-11-10T10:40:01.418Z,85.60
2022-11-10T10:42:47.469Z,85.80
2022-11-10T10:45:32.981Z,84.70
2022-11-10T10:48:30.211Z,84.80
2022-11-10T10:51:32.028Z,86.70
2022-11-10T10:54:32.477Z,86.40
2022-11-10T10:57:28.176Z,85.30
2022-11-10T11:00:26.034Z,84.30
2022-11-10T11:03:46.388Z,84.00
2022-11-10T11:06:33.919Z,84.80
2022-11-10T11:09:24.201Z,83.90
2022-11-10T11:12:21.339Z,84.30
2022-11-10T11:15:21.867Z,83.60
2022-11-10T11:18:17.254Z,82.30
2022-11-10T11:21:29.028Z,81.10
2022-11-10T11:25:03.170Z,80.10
2022-11-10T11:28:00.246Z,80.50
2022-11-10T11:30:57.490Z,81.90
2022-11-10T11:33:57.297Z,79.50
2022-11-10T11:36:54.391Z,79.40
2022-11-10T11:40:07.659Z,80.90
2022-11-10T11:43:19.609Z,80.50
2022-11-10T11:46:17.087Z,79.50
2022-11-10T11:49:41.663Z,79.80
2022-11-10T11:52:37.849Z,77.70
2022-11-10T11:55:27.144Z,77.60
2022-11-10T11:58:31.381Z,76.80
2022-11-10T12:01:31.709Z,76.50
2022-11-10T12:04:35.354Z,75.50
2022-11-10T12:07:35.571Z,74.70
2022-11-10T12:10:58.386Z,75.70
2022-11-10T12:13:56.684Z,75.90
2022-11-10T12:16:47.191Z,77.20
2022-11-10T12:19:43.287Z,77.30
2022-11-10T12:22:47.518Z,76.90
2022-11-10T12:25:46.048Z,77.40
2022-11-10T12:28:55.666Z,75.50
2022-11-10T12:31:46.056Z,76.10
2022-11-10T12:34:43.759Z,76.50
2022-11-10T12:38:03.949Z,76.30
2022-11-10T12:41:07.846Z,76.10
2022-11-10T12:44:14.111Z,76.70
2022-11-10T12:47:06.662Z,75.50
2022-11-10T12:50:01.823Z,76.20
2022-11-10T12:52:56.735Z,74.80
2022-11-10T12:55:50.891Z,75.50
2022-11-10T12:58:36.548Z,77.30
2022-11-10T13:01:23.061Z,75.80
2022-11-10T13:04:08.902Z,74.30
2022-11-10T13:07:04.766Z,75.00
2022-11-10T13:09:52.893Z,75.10
2022-11-10T13:12:58.969Z,75.20
2022-11-10T13:15:45.010Z,75.30
2022-11-10T13:18:30.529Z,75.90
2022-11-10T13:21:16.460Z,76.50
2022-11-10T13:24:02.620Z,75.30
2022-11-10T13:26:52.649Z,75.90
2022-11-10T13:29:47.342Z,75.50
2022-11-10T13:32:34.310Z,74.50
2022-11-10T13:35:29.671Z,74.40
2022-11-10T13:38:36.490Z,75.00
2022-11-10T13:41:25.262Z,74.20
2022-11-10T13:44:37.957Z,74.60
2022-11-10T13:47:34.865Z,75.50
2022-11-10T13:50:48.629Z,75.90
2022-11-10T13:53:46.802Z,75.90
2022-11-10T13:56:59.220Z,74.80
2022-11-10T13:59:55.416Z,75.20
2022-11-10T14:02:46.775Z,75.80
2022-11-10T14:05:32.684Z,74.90
2022-11-10T14:08:22.995Z,74.00
2022-11-10T14:11:30.829Z,74.40
2022-11-10T14:14:29.170Z,75.70
2022-11-10T14:17:19.274Z,78.60
2022-11-10T14:20:19.783Z,80.10
2022-11-10T14:23:05.782Z,78.30
2022-11-10T14:25:59.825Z,77.60
2022-11-10T14:28:46.009Z,77.30
2022-11-10T14:31:36.252Z,78.20
2022-11-10T14:34:23.829Z,79.30
2022-11-10T14:37:15.285Z,78.60
2022-11-10T14:40:02.513Z,79.50
2022-11-10T14:42:48.146Z,81.70
2022-11-10T14:45:33.511Z,82.80
2022-11-10T14:48:23.694Z,83.60
2022-11-10T14:51:19.191Z,84.20
2022-11-10T14:54:04.531Z,85.10
2022-11-10T14:56:50.419Z,85.50
2022-11-10T14:59:37.647Z,85.90
2022-11-10T15:02:23.459Z,86.10
2022-11-10T15:05:14.622Z,86.30
2022-11-10T15:08:02.972Z,87.10
2022-11-10T15:10:51.044Z,87.50
2022-11-10T15:13:38.886Z,87.70
2022-11-10T15:16:27.354Z,88.00
2022-11-10T15:19:28.449Z,88.20
2022-11-10T15:22:22.096Z,88.40
2022-11-10T15:25:17.604Z,88.80
2022-11-10T15:28:12.169Z,88.80
2022-11-10T15:31:07.885Z,88.80
2022-11-10T15:33:56.170Z,89.20
2022-11-10T15:36:41.706Z,89.80
2022-11-10T15:39:28.076Z,89.90
2022-11-10T15:42:22.703Z,90.00
2022-11-10T15:45:09.000Z,90.20
2022-11-10T15:47:55.479Z,90.30
2022-11-10T15:50:46.008Z,90.40
2022-11-10T15:53:34.148Z,90.50
2022-11-10T15:56:23.066Z,90.40
2022-11-10T15:59:10.367Z,90.50
2022-11-10T16:01:56.024Z,90.70
2022-11-10T16:04:41.701Z,90.80
2022-11-10T16:07:27.347Z,90.80
2022-11-10T16:10:12.476Z,90.90
2022-11-10T16:12:57.841Z,90.90
2022-11-10T16:15:45.194Z,91.10
2022-11-10T16:18:31.724Z,91.20
2022-11-10T16:21:20.763Z,91.10
2022-11-10T16:24:10.575Z,91.30
2022-11-10T16:26:55.972Z,91.30
2022-11-10T16:30:04.766Z,91.40
2022-11-10T16:32:50.575Z,91.40
2022-11-10T16:35:36.589Z,91.30
2022-11-10T16:38:27.161Z,91.10
2022-11-10T16:41:16.698Z,91.00
2022-11-10T16:44:05.916Z,90.90
2022-11-10T16:47:06.914Z,91.10
2022-11-10T16:50:01.293Z,91.30
2022-11-10T16:52:46.975Z,91.50
2022-11-10T16:55:35.564Z,91.70
2022-11-10T16:58:21.875Z,92.00
2022-11-10T17:01:18.692Z,92.30
2022-11-10T17:04:12.118Z,92.60
2022-11-10T17:06:57.918Z,92.90
2022-11-10T17:09:43.843Z,93.10
2022-11-10T17:12:29.175Z,93.30
2022-11-10T17:15:30.682Z,93.40
2022-11-10T17:18:21.730Z,93.50
2022-11-10T17:21:07.701Z,93.50
2022-11-10T17:23:53.901Z,93.60
2022-11-10T17:26:39.781Z,93.70
2022-11-10T17:29:24.929Z,93.70
2022-11-10T17:32:10.718Z,93.70
2022-11-10T17:34:56.103Z,93.70
2022-11-10T17:37:43.216Z,93.80
2022-11-10T17:40:29.285Z,93.80
2022-11-10T17:43:15.904Z,93.70
2022-11-10T17:46:01.182Z,93.80
2022-11-10T17:48:47.912Z,93.80
2022-11-10T17:51:34.517Z,93.80
2022-11-10T17:54:20.223Z,93.90
2022-11-10T17:57:09.618Z,94.00
2022-11-10T17:59:55.701Z,93.90
2022-11-10T18:02:42.130Z,94.00
2022-11-10T18:05:27.771Z,94.00
2022-11-10T18:08:15.224Z,94.00
2022-11-10T18:11:00.963Z,94.00
2022-11-10T18:13:46.587Z,93.90
2022-11-10T18:16:32.065Z,93.80
2022-11-10T18:19:17.697Z,93.90
2022-11-10T18:22:24.652Z,93.80
2022-11-10T18:25:10.696Z,93.80
2022-11-10T18:27:57.160Z,94.00
2022-11-10T18:30:45.276Z,94.00
2022-11-10T18:33:30.622Z,94.00
2022-11-10T18:36:16.236Z,93.90
2022-11-10T18:39:01.637Z,93.50
2022-11-10T18:41:50.071Z,93.40
2022-11-10T18:44:37.136Z,93.30
2022-11-10T18:47:41.881Z,93.30
2022-11-10T18:50:27.375Z,93.30
2022-11-10T18:53:13.110Z,93.30
2022-11-10T18:56:00.197Z,93.40
2022-11-10T18:58:56.766Z,93.60
2022-11-10T19:01:44.961Z,93.60
2022-11-10T19:04:31.160Z,93.70
2022-11-10T19:07:19.272Z,93.80
2022-11-10T19:10:06.102Z,93.80
2022-11-10T19:12:58.949Z,94.00
2022-11-10T19:15:45.577Z,94.00
2022-11-10T19:18:31.675Z,94.10
2022-11-10T19:21:40.967Z,94.20
2022-11-10T19:24:28.324Z,94.20
2022-11-10T19:27:16.704Z,94.20
2022-11-10T19:30:02.055Z,94.20
2022-11-10T19:32:48.556Z,94.20
2022-11-10T19:35:34.468Z,94.20
2022-11-10T19:38:20.148Z,94.30
2022-11-10T19:41:11.208Z,94.30
2022-11-10T19:44:00.370Z,94.40
2022-11-10T19:46:46.830Z,94.40
2022-11-10T19:49:32.318Z,94.40
2022-11-10T19:52:18.140Z,94.40
2022-11-10T19:55:03.722Z,94.50
2022-11-10T19:57:49.326Z,94.60
2022-11-10T20:00:34.850Z,94.60
2022-11-10T20:03:20.859Z,94.60
2022-11-10T20:06:11.936Z,94.70
2022-11-10T20:08:59.972Z,94.70
2022-11-10T20:11:48.002Z,94.70
2022-11-10T20:14:33.628Z,94.80
2022-11-10T20:17:19.384Z,94.70
2022-11-10T20:20:06.579Z,94.70
2022-11-10T20:22:52.295Z,94.90
2022-11-10T20:25:38.621Z,95.00
2022-11-10T20:28:24.151Z,95.10
2022-11-10T20:31:13.817Z,95.20
2022-11-10T20:33:59.161Z,95.30
2022-11-10T20:36:45.135Z,95.30
2022-11-10T20:39:30.821Z,95.60
2022-11-10T20:42:17.370Z,95.60
2022-11-10T20:45:02.958Z,95.70
2022-11-10T20:47:48.549Z,95.70
2022-11-10T20:50:34.163Z,95.80
2022-11-10T20:53:21.040Z,95.90
2022-11-10T20:56:07.698Z,96.00
2022-11-10T20:58:53.602Z,96.10
2022-11-10T21:01:39.096Z,96.10
2022-11-10T21:04:24.810Z,96.20
2022-11-10T21:07:10.696Z,96.30
2022-11-10T21:09:56.671Z,96.30
2022-11-10T21:12:52.177Z,96.50
2022-11-10T21:15:40.065Z,96.50
2022-11-10T21:18:31.394Z,96.50
2022-11-10T21:21:22.846Z,96.60
2022-11-10T21:24:09.764Z,96.70
2022-11-10T21:26:56.775Z,96.80
2022-11-10T21:29:42.703Z,96.80
2022-11-10T21:32:29.126Z,97.00
2022-11-10T21:35:15.267Z,97.00
2022-11-10T21:38:01.345Z,97.00
2022-11-10T21:40:47.032Z,97.00
2022-11-10T21:43:32.664Z,97.20
2022-11-10T21:46:19.388Z,97.20
2022-11-10T21:49:07.822Z,97.30
2022-11-10T21:51:54.783Z,97.40
2022-11-10T21:54:40.465Z,97.50
2022-11-10T21:57:25.983Z,97.50
2022-11-10T22:00:12.944Z,97.50
2022-11-10T22:03:01.750Z,97.50
2022-11-10T22:05:47.472Z,97.60
2022-11-10T22:08:34.239Z,97.70
2022-11-10T22:11:40.982Z,97.70
2022-11-10T22:15:02.396Z,97.80
2022-11-10T22:18:07.197Z,98.00
2022-11-10T22:20:52.732Z,98.00
2022-11-10T22:23:57.691Z,98.10
2022-11-10T22:26:43.738Z,98.20
2022-11-10T22:29:32.215Z,98.30
2022-11-10T22:32:18.027Z,98.30
2022-11-10T22:35:03.972Z,98.40
2022-11-10T22:37:49.331Z,98.50
2022-11-10T22:40:54.372Z,98.50
2022-11-10T22:43:58.725Z,98.50
2022-11-10T22:46:48.069Z,98.60
2022-11-10T22:49:34.142Z,98.60
2022-11-10T22:52:19.628Z,98.70
2022-11-10T22:55:05.696Z,98.80
2022-11-10T22:57:53.265Z,98.90
2022-11-10T23:00:38.788Z,99.00
2022-11-10T23:03:24.915Z,99.00
2022-11-10T23:06:10.881Z,99.00
2022-11-10T23:08:57.471Z,99.30
2022-11-10T23:11:43.125Z,99.20
2022-11-10T23:14:28.354Z,99.30
2022-11-10T23:17:14.004Z,99.40
2022-11-10T23:19:59.532Z,99.50
2022-11-10T23:22:45.102Z,99.50
2022-11-10T23:25:30.683Z,99.50
2022-11-10T23:28:16.084Z,99.60
2022-11-10T23:31:03.525Z,99.60
2022-11-10T23:33:54.415Z,99.70
2022-11-10T23:36:39.648Z,99.80
2022-11-10T23:39:25.144Z,99.90
2022-11-10T23:42:10.799Z,99.90
2022-11-10T23:44:56.130Z,99.90
2022-11-10T23:47:41.751Z,99.90
2022-11-10T23:50:27.346Z,99.90
2022-11-10T23:53:13.079Z,99.90
2022-11-10T23:56:03.366Z,99.90
2022-11-10T23:58:49.034Z,99.90
